createdAt,value
2023-04-03T00:01:29.574Z,7.37
2023-04-03T00:03:58.401Z,5.53
2023-04-03T00:06:27.642Z,6.37
2023-04-03T00:08:56.176Z,6.77
2023-04-03T00:11:24.645Z,9.17
2023-04-03T00:13:53.151Z,5.17
2023-04-03T00:16:21.811Z,8.63
2023-04-03T00:18:51.846Z,7.57
2023-04-03T00:21:20.349Z,4.13
2023-04-03T00:23:48.920Z,8.03
2023-04-03T00:26:17.460Z,5.97
2023-04-03T00:28:46.103Z,3.83
2023-04-03T00:31:17.665Z,6.83
2023-04-03T00:33:46.487Z,4.70
2023-04-03T00:36:17.438Z,5.77
2023-04-03T00:38:46.234Z,5.27
2023-04-03T00:41:14.688Z,4.57
2023-04-03T00:43:43.119Z,8.43
2023-04-03T00:46:12.021Z,4.00
2023-04-03T00:48:43.867Z,4.20
2023-04-03T00:51:17.112Z,5.57
2023-04-03T00:53:49.073Z,5.53
2023-04-03T00:56:20.727Z,3.83
2023-04-03T00:58:56.726Z,6.33
2023-04-03T01:01:27.650Z,6.73
2023-04-03T01:03:57.182Z,7.00
2023-04-03T01:06:32.379Z,6.63
2023-04-03T01:09:02.103Z,6.70
2023-04-03T01:11:30.854Z,4.17
2023-04-03T01:13:59.497Z,5.90
2023-04-03T01:16:29.141Z,5.50
2023-04-03T01:18:57.913Z,7.37
2023-04-03T01:21:49.233Z,5.67
2023-04-03T01:24:30.181Z,4.17
2023-04-03T01:26:58.705Z,9.97
2023-04-03T01:29:27.213Z,6.27
2023-04-03T01:31:59.029Z,4.20
2023-04-03T01:34:28.387Z,5.87
2023-04-03T01:36:58.796Z,6.43
2023-04-03T01:39:27.357Z,6.83
2023-04-03T01:41:55.935Z,6.67
2023-04-03T01:44:24.402Z,2.70
2023-04-03T01:46:53.015Z,6.30
2023-04-03T01:49:23.036Z,4.83
2023-04-03T01:51:51.568Z,4.57
2023-04-03T01:54:20.062Z,5.27
2023-04-03T01:56:48.593Z,4.27
2023-04-03T01:59:18.310Z,5.40
2023-04-03T02:01:47.307Z,7.23
2023-04-03T02:04:15.918Z,4.47
2023-04-03T02:06:46.132Z,7.20
2023-04-03T02:09:14.922Z,6.20
2023-04-03T02:11:43.763Z,4.13
2023-04-03T02:14:12.338Z,4.77
2023-04-03T02:16:41.192Z,4.07
2023-04-03T02:19:10.198Z,3.87
2023-04-03T02:21:38.841Z,4.43
2023-04-03T02:24:09.624Z,3.73
2023-04-03T02:26:38.152Z,5.00
2023-04-03T02:29:07.107Z,4.73
2023-04-03T02:31:35.754Z,6.13
2023-04-03T02:34:04.263Z,2.83
2023-04-03T02:36:33.010Z,4.83
2023-04-03T02:39:01.765Z,3.23
2023-04-03T02:41:36.134Z,6.40
2023-04-03T02:44:05.912Z,6.53
2023-04-03T02:46:34.576Z,5.10
2023-04-03T02:49:03.126Z,5.97
2023-04-03T02:51:31.746Z,7.27
2023-04-03T02:54:00.501Z,8.90
2023-04-03T02:56:32.047Z,3.47
2023-04-03T02:59:03.353Z,7.80
2023-04-03T03:01:33.675Z,7.87
2023-04-03T03:04:02.516Z,6.97
2023-04-03T03:06:31.157Z,6.30
2023-04-03T03:08:59.808Z,6.00
2023-04-03T03:11:28.784Z,7.73
2023-04-03T03:13:58.922Z,5.53
2023-04-03T03:16:27.752Z,5.27
2023-04-03T03:18:57.802Z,6.40
2023-04-03T03:21:27.343Z,4.40
2023-04-03T03:23:56.058Z,5.70
2023-04-03T03:26:25.034Z,6.20
2023-04-03T03:28:53.970Z,5.73
2023-04-03T03:31:24.161Z,4.50
2023-04-03T03:33:52.748Z,5.70
2023-04-03T03:36:21.576Z,7.67
2023-04-03T03:38:50.224Z,9.07
2023-04-03T03:41:18.915Z,6.33
2023-04-03T03:43:47.617Z,3.30
2023-04-03T03:46:16.351Z,6.13
2023-04-03T03:48:46.422Z,4.80
2023-04-03T03:51:15.231Z,6.23
2023-04-03T03:53:43.900Z,9.17
2023-04-03T03:56:13.426Z,4.03
2023-04-03T03:58:42.019Z,6.80
2023-04-03T04:01:10.601Z,6.47
2023-04-03T04:03:39.572Z,4.40
2023-04-03T04:06:09.818Z,9.00
2023-04-03T04:08:38.384Z,5.73
2023-04-03T04:11:06.914Z,8.97
2023-04-03T04:13:35.768Z,5.83
2023-04-03T04:16:04.485Z,5.53
2023-04-03T04:18:33.091Z,8.17
2023-04-03T04:21:01.773Z,8.00
2023-04-03T04:23:34.045Z,9.13
2023-04-03T04:26:02.573Z,7.70
2023-04-03T04:28:31.292Z,6.27
2023-04-03T04:31:00.070Z,4.50
2023-04-03T04:33:28.674Z,6.03
2023-04-03T04:35:57.432Z,4.87
2023-04-03T04:38:26.193Z,5.70
2023-04-03T04:40:56.112Z,7.10
2023-04-03T04:43:24.671Z,6.33
2023-04-03T04:46:03.265Z,7.27
2023-04-03T04:48:32.853Z,6.20
2023-04-03T04:51:01.713Z,5.13
2023-04-03T04:53:30.501Z,7.60
2023-04-03T04:56:00.572Z,8.63
2023-04-03T04:58:29.700Z,8.57
2023-04-03T05:01:02.520Z,6.77
2023-04-03T05:03:31.661Z,4.87
2023-04-03T05:06:00.587Z,6.20
2023-04-03T05:08:29.182Z,7.33
2023-04-03T05:10:57.816Z,7.50
2023-04-03T05:13:27.793Z,6.23
2023-04-03T05:15:56.751Z,7.87
2023-04-03T05:18:25.620Z,6.20
2023-04-03T05:20:54.428Z,8.63
2023-04-03T05:23:22.890Z,9.10
2023-04-03T05:25:51.453Z,5.00
2023-04-03T05:28:20.032Z,7.87
2023-04-03T05:30:56.606Z,8.23
2023-04-03T05:33:26.111Z,5.93
2023-04-03T05:36:01.260Z,5.73
2023-04-03T05:38:30.242Z,4.77
2023-04-03T05:40:58.948Z,7.23
2023-04-03T05:43:27.693Z,6.23
2023-04-03T05:45:57.754Z,9.23
2023-04-03T05:48:27.101Z,6.70
2023-04-03T05:50:57.162Z,8.23
2023-04-03T05:53:30.326Z,6.57
2023-04-03T05:55:58.975Z,8.70
2023-04-03T05:58:27.484Z,5.27
2023-04-03T06:00:57.783Z,9.33
2023-04-03T06:03:26.466Z,7.33
2023-04-03T06:05:55.594Z,12.70
2023-04-03T06:08:25.030Z,6.33
2023-04-03T06:10:53.941Z,6.40
2023-04-03T06:13:22.405Z,9.63
2023-04-03T06:15:50.945Z,6.50
2023-04-03T06:18:20.977Z,6.23
2023-04-03T06:20:49.529Z,5.63
2023-04-03T06:23:19.250Z,8.33
2023-04-03T06:25:48.280Z,5.63
2023-04-03T06:28:16.960Z,6.13
2023-04-03T06:30:45.546Z,6.27
2023-04-03T06:33:14.033Z,5.87
2023-04-03T06:35:43.958Z,9.93
2023-04-03T06:38:13.058Z,6.10
2023-04-03T06:40:41.768Z,4.83
2023-04-03T06:43:10.594Z,4.90
2023-04-03T06:45:39.635Z,9.27
2023-04-03T06:48:09.267Z,6.50
2023-04-03T06:50:37.782Z,6.77
2023-04-03T06:53:08.352Z,7.93
2023-04-03T06:55:37.302Z,10.27
2023-04-03T06:58:06.390Z,6.10
2023-04-03T07:00:35.159Z,12.73
2023-04-03T07:03:03.930Z,3.90
2023-04-03T07:05:32.580Z,11.63
2023-04-03T07:08:01.018Z,7.53
2023-04-03T07:10:30.960Z,6.27
2023-04-03T07:12:59.608Z,4.70
2023-04-03T07:15:28.303Z,5.47
2023-04-03T07:17:57.152Z,6.27
2023-04-03T07:20:25.760Z,6.30
2023-04-03T07:22:54.225Z,5.77
2023-04-03T07:25:22.942Z,4.80
2023-04-03T07:27:53.359Z,5.50
2023-04-03T07:30:21.875Z,9.50
2023-04-03T07:32:50.608Z,8.07
2023-04-03T07:35:19.581Z,7.73
2023-04-03T07:37:48.522Z,9.27
2023-04-03T07:40:17.695Z,6.73
2023-04-03T07:42:46.885Z,5.43
2023-04-03T07:45:16.825Z,7.43
2023-04-03T07:47:45.414Z,4.63
2023-04-03T07:50:13.944Z,6.07
2023-04-03T07:52:42.728Z,4.60
2023-04-03T07:55:11.471Z,4.17
2023-04-03T07:57:40.238Z,10.23
2023-04-03T08:00:10.071Z,6.00
2023-04-03T08:02:40.125Z,4.90
2023-04-03T08:05:09.372Z,4.63
2023-04-03T08:07:39.200Z,5.30
2023-04-03T08:10:08.715Z,6.50
2023-04-03T08:12:38.135Z,7.13
2023-04-03T08:15:07.593Z,5.80
2023-04-03T08:17:36.197Z,3.43
2023-04-03T08:20:07.844Z,5.20
2023-04-03T08:22:36.806Z,5.83
2023-04-03T08:25:05.867Z,5.27
2023-04-03T08:27:34.661Z,6.93
2023-04-03T08:30:03.267Z,4.23
2023-04-03T08:32:32.010Z,5.47
2023-04-03T08:35:00.837Z,5.57
2023-04-03T08:37:31.470Z,4.63
2023-04-03T08:40:00.478Z,3.73
2023-04-03T08:42:44.519Z,6.40
2023-04-03T08:45:17.160Z,5.13
2023-04-03T08:47:51.297Z,5.93
2023-04-03T08:50:22.605Z,5.13
2023-04-03T08:52:55.897Z,3.47
2023-04-03T08:55:28.856Z,3.97
2023-04-03T08:58:03.845Z,2.40
2023-04-03T09:00:48.762Z,4.70
2023-04-03T09:03:19.115Z,3.17
2023-04-03T09:05:51.150Z,2.40
2023-04-03T09:08:27.154Z,2.23
2023-04-03T09:11:08.490Z,2.63
2023-04-03T09:13:44.491Z,5.03
2023-04-03T09:16:23.935Z,4.10
2023-04-03T09:18:59.639Z,4.33
2023-04-03T09:21:34.721Z,2.47
2023-04-03T09:24:08.826Z,2.43
2023-04-03T09:26:41.969Z,2.23
2023-04-03T09:29:11.185Z,2.70
2023-04-03T09:31:42.520Z,1.93
2023-04-03T09:34:21.912Z,3.60
2023-04-03T09:36:52.664Z,3.77
2023-04-03T09:39:24.947Z,3.83
2023-04-03T09:42:02.625Z,5.00
2023-04-03T09:44:34.115Z,3.00
2023-04-03T09:47:19.591Z,4.73
2023-04-03T09:49:48.403Z,3.37
2023-04-03T09:52:27.159Z,3.27
2023-04-03T09:55:09.526Z,3.07
2023-04-03T09:57:38.368Z,5.63
2023-04-03T10:00:12.221Z,4.37
2023-04-03T10:02:42.606Z,5.00
2023-04-03T10:05:30.805Z,4.17
2023-04-03T10:08:25.154Z,5.80
2023-04-03T10:13:57.961Z,4.60
2023-04-03T10:16:38.569Z,5.13
2023-04-03T10:19:24.144Z,4.87
2023-04-03T10:22:11.452Z,6.13
2023-04-03T10:24:50.911Z,4.47
2023-04-03T10:27:27.293Z,3.53
2023-04-03T10:30:06.418Z,5.17
2023-04-03T10:32:57.507Z,5.33
2023-04-03T10:35:39.786Z,2.23
2023-04-03T10:38:18.281Z,7.07
2023-04-03T10:40:54.566Z,4.73
2023-04-03T10:43:36.527Z,3.10
2023-04-03T10:46:11.668Z,2.30
2023-04-03T10:48:51.890Z,2.67
2023-04-03T10:51:31.151Z,3.70
2023-04-03T10:54:06.237Z,4.83
2023-04-03T10:56:40.744Z,5.30
2023-04-03T10:59:19.749Z,4.07
2023-04-03T11:01:54.185Z,4.40
2023-04-03T11:04:26.585Z,3.43
2023-04-03T11:07:00.401Z,5.10
2023-04-03T11:09:31.111Z,3.73
2023-04-03T11:12:04.740Z,2.80
2023-04-03T11:14:37.793Z,4.43
2023-04-03T11:17:22.849Z,4.67
2023-04-03T11:19:59.279Z,5.57
2023-04-03T11:22:31.850Z,3.00
2023-04-03T11:25:07.400Z,3.63
2023-04-03T11:27:42.724Z,3.93
2023-04-03T11:30:19.812Z,4.80
2023-04-03T11:33:14.808Z,2.87
2023-04-03T11:35:48.116Z,4.30
2023-04-03T11:38:23.319Z,3.20
2023-04-03T11:40:53.326Z,3.63
2023-04-03T11:43:27.162Z,4.77
2023-04-03T11:46:00.404Z,5.80
2023-04-03T11:48:51.145Z,4.00
2023-04-03T11:51:44.909Z,4.63
2023-04-03T11:54:52.862Z,6.13
2023-04-03T11:57:49.287Z,5.13
2023-04-03T12:00:53.418Z,4.20
2023-04-03T12:04:10.735Z,3.13
2023-04-03T12:06:54.367Z,2.87
2023-04-03T12:09:31.737Z,4.33
2023-04-03T12:12:02.850Z,6.70
2023-04-03T12:14:31.999Z,5.33
2023-04-03T12:17:01.108Z,2.37
2023-04-03T12:22:17.036Z,4.10
2023-04-03T12:24:49.731Z,3.87
2023-04-03T12:27:27.372Z,7.30
2023-04-03T12:30:02.612Z,3.87
2023-04-03T12:32:56.201Z,4.83
2023-04-03T12:35:35.400Z,3.37
2023-04-03T12:38:41.961Z,2.13
2023-04-03T12:41:32.876Z,1.93
2023-04-03T12:44:21.740Z,2.77
2023-04-03T12:46:52.334Z,3.33
2023-04-03T12:49:38.638Z,3.70
2023-04-03T12:52:22.130Z,2.70
2023-04-03T12:54:52.813Z,4.27
2023-04-03T12:57:23.830Z,3.47
2023-04-03T12:59:53.155Z,2.47
2023-04-03T13:02:27.593Z,2.50
2023-04-03T13:04:59.044Z,4.23
2023-04-03T13:07:33.360Z,2.97
2023-04-03T13:10:05.613Z,4.93
2023-04-03T13:12:34.133Z,2.77
2023-04-03T13:15:05.516Z,4.37
2023-04-03T13:17:35.340Z,4.27
2023-04-03T13:20:16.293Z,3.63
2023-04-03T13:22:52.407Z,4.60
2023-04-03T13:25:24.905Z,5.43
2023-04-03T13:28:00.360Z,4.13
2023-04-03T13:30:40.884Z,3.33
2023-04-03T13:33:24.217Z,2.90
2023-04-03T13:35:59.353Z,2.67
2023-04-03T13:38:32.582Z,4.50
2023-04-03T13:41:13.516Z,4.03
2023-04-03T13:43:42.089Z,8.40
2023-04-03T13:46:27.553Z,7.27
2023-04-03T13:48:57.773Z,4.20
2023-04-03T13:51:29.257Z,8.70
2023-04-03T13:54:01.833Z,14.10
2023-04-03T13:56:34.701Z,4.67
2023-04-03T13:59:22.220Z,10.47
2023-04-03T14:01:54.252Z,4.87
2023-04-03T14:04:25.724Z,5.93
2023-04-03T14:06:55.226Z,7.03
2023-04-03T14:09:26.547Z,3.17
2023-04-03T14:11:57.698Z,3.97
2023-04-03T14:14:29.653Z,6.33
2023-04-03T14:17:01.366Z,5.43
2023-04-03T14:19:33.156Z,5.30
2023-04-03T14:22:03.143Z,19.27
2023-04-03T14:24:33.414Z,6.83
2023-04-03T14:27:02.000Z,4.50
2023-04-03T14:29:30.792Z,25.00
2023-04-03T14:32:11.512Z,7.53
2023-04-03T14:34:44.036Z,4.70
2023-04-03T14:37:14.674Z,5.33
2023-04-03T14:39:45.682Z,11.43
2023-04-03T14:42:20.953Z,17.73
2023-04-03T14:44:49.700Z,9.10
2023-04-03T14:47:30.613Z,13.80
2023-04-03T14:50:00.737Z,9.23
2023-04-03T14:52:31.451Z,5.87
2023-04-03T14:55:02.732Z,3.93
2023-04-03T14:57:32.784Z,4.63
2023-04-03T15:00:03.221Z,6.60
2023-04-03T15:02:33.674Z,6.67
2023-04-03T15:05:05.619Z,4.67
2023-04-03T15:07:37.855Z,6.00
2023-04-03T15:10:20.356Z,9.53
2023-04-03T15:12:50.436Z,3.63
2023-04-03T15:15:21.068Z,3.53
2023-04-03T15:17:55.148Z,4.70
2023-04-03T15:20:26.491Z,4.60
2023-04-03T15:22:57.516Z,4.73
2023-04-03T15:25:29.189Z,4.67
2023-04-03T15:27:58.599Z,5.43
2023-04-03T15:32:23.118Z,5.30
2023-04-03T15:34:55.005Z,9.67
2023-04-03T15:37:25.918Z,4.80
2023-04-03T15:39:54.612Z,8.33
2023-04-03T15:42:23.199Z,5.30
2023-04-03T15:44:51.991Z,4.43
2023-04-03T15:47:21.045Z,4.50
2023-04-03T15:49:51.123Z,9.27
2023-04-03T15:52:19.844Z,4.83
2023-04-03T15:54:48.413Z,5.70
2023-04-03T15:57:16.936Z,7.37
2023-04-03T15:59:47.344Z,5.87
2023-04-03T16:02:16.072Z,4.70
2023-04-03T16:04:44.587Z,4.63
2023-04-03T16:07:14.768Z,6.17
2023-04-03T16:09:43.212Z,4.30
2023-04-03T16:12:11.817Z,15.50
2023-04-03T16:14:41.758Z,8.50
2023-04-03T16:17:10.526Z,5.20
2023-04-03T16:19:39.944Z,3.60
2023-04-03T16:22:08.408Z,5.47
2023-04-03T16:24:39.329Z,17.20
2023-04-03T16:27:08.185Z,28.10
2023-04-03T16:29:37.950Z,16.77
2023-04-03T16:32:06.849Z,18.93
2023-04-03T16:34:35.545Z,12.97
2023-04-03T16:37:04.023Z,28.77
2023-04-03T16:39:34.096Z,8.73
2023-04-03T16:42:04.160Z,6.10
2023-04-03T16:44:32.696Z,9.53
2023-04-03T16:47:01.602Z,7.90
2023-04-03T16:49:34.292Z,8.60
2023-04-03T16:52:03.228Z,16.90
2023-04-03T16:54:32.317Z,17.77
2023-04-03T16:57:01.165Z,24.23
2023-04-03T16:59:31.258Z,44.70
2023-04-03T17:02:00.562Z,18.07
2023-04-03T17:04:29.166Z,20.33
2023-04-03T17:06:58.598Z,31.40
2023-04-03T17:09:27.235Z,35.43
2023-04-03T17:11:55.904Z,36.77
2023-04-03T17:14:24.627Z,20.97
2023-04-03T17:16:55.002Z,23.67
2023-04-03T17:19:24.407Z,31.30
2023-04-03T17:21:53.987Z,25.43
2023-04-03T17:24:22.498Z,19.43
2023-04-03T17:26:51.266Z,13.90
2023-04-03T17:29:20.053Z,17.57
2023-04-03T17:31:49.007Z,19.27
2023-04-03T17:34:19.493Z,15.43
2023-04-03T17:36:48.415Z,13.67
2023-04-03T17:39:18.096Z,10.30
2023-04-03T17:41:47.216Z,11.17
2023-04-03T17:44:15.692Z,7.30
2023-04-03T17:46:44.282Z,6.00
2023-04-03T17:49:15.233Z,8.03
2023-04-03T17:51:45.441Z,11.50
2023-04-03T17:54:14.457Z,14.77
2023-04-03T17:56:47.948Z,25.13
2023-04-03T17:59:17.803Z,37.70
2023-04-03T18:01:48.271Z,30.13
2023-04-03T18:04:16.931Z,22.83
2023-04-03T18:06:49.878Z,29.77
2023-04-03T18:09:21.022Z,19.87
2023-04-03T18:11:50.221Z,19.13
2023-04-03T18:14:21.115Z,18.80
2023-04-03T18:16:49.764Z,23.10
2023-04-03T18:19:23.521Z,28.63
2023-04-03T18:21:59.557Z,28.13
2023-04-03T18:24:28.961Z,27.20
2023-04-03T18:27:01.733Z,27.27
2023-04-03T18:29:32.757Z,33.20
2023-04-03T18:32:04.513Z,26.57
2023-04-03T18:34:33.624Z,25.23
2023-04-03T18:37:03.582Z,26.60
2023-04-03T18:39:32.110Z,23.83
2023-04-03T18:42:05.269Z,23.67
2023-04-03T18:44:35.054Z,24.87
2023-04-03T18:47:04.024Z,25.53
2023-04-03T18:49:35.936Z,123.73
2023-04-03T18:52:06.269Z,403.40
2023-04-03T18:54:34.810Z,172.20
2023-04-03T18:57:03.209Z,203.60
2023-04-03T18:59:31.702Z,100.50
2023-04-03T19:02:01.039Z,52.73
2023-04-03T19:04:30.907Z,49.20
2023-04-03T19:06:59.481Z,53.80
2023-04-03T19:09:30.088Z,44.47
2023-04-03T19:11:58.576Z,28.50
2023-04-03T19:14:27.420Z,21.10
2023-04-03T19:16:56.979Z,20.33
2023-04-03T19:19:25.928Z,18.27
2023-04-03T19:21:55.037Z,14.07
2023-04-03T19:24:24.067Z,11.03
2023-04-03T19:26:53.993Z,120.83
2023-04-03T19:29:22.562Z,164.80
2023-04-03T19:31:51.018Z,156.43
2023-04-03T19:34:19.712Z,129.57
2023-04-03T19:36:48.372Z,291.90
2023-04-03T19:39:16.889Z,74.20
2023-04-03T19:41:46.461Z,36.97
2023-04-03T19:44:16.481Z,21.30
2023-04-03T19:46:51.174Z,245.33
2023-04-03T19:49:20.825Z,117.87
2023-04-03T19:51:49.599Z,354.03
2023-04-03T19:54:18.942Z,282.83
2023-04-03T19:56:47.667Z,84.37
2023-04-03T19:59:18.020Z,48.93
2023-04-03T20:01:47.596Z,29.30
2023-04-03T20:04:16.448Z,23.87
2023-04-03T20:06:45.133Z,18.60
2023-04-03T20:09:14.087Z,18.00
2023-04-03T20:11:43.620Z,18.43
2023-04-03T20:14:12.371Z,15.27
2023-04-03T20:16:42.608Z,12.83
2023-04-03T20:19:11.428Z,10.43
2023-04-03T20:21:40.085Z,13.87
2023-04-03T20:24:11.587Z,11.77
2023-04-03T20:26:46.385Z,10.40
2023-04-03T20:29:16.827Z,10.03
2023-04-03T20:31:47.067Z,8.20
2023-04-03T20:34:16.237Z,7.87
2023-04-03T20:36:49.166Z,9.90
2023-04-03T20:39:24.337Z,165.80
2023-04-03T20:41:53.458Z,256.73
2023-04-03T20:44:22.061Z,205.00
2023-04-03T20:46:53.859Z,455.17
2023-04-03T20:49:23.142Z,374.00
2023-04-03T20:51:52.929Z,39.23
2023-04-03T20:54:22.019Z,12.97
2023-04-03T20:56:50.718Z,7.27
2023-04-03T20:59:19.463Z,8.07
2023-04-03T21:01:49.175Z,7.40
2023-04-03T21:04:23.400Z,8.00
2023-04-03T21:07:29.195Z,8.67
2023-04-03T21:10:34.712Z,7.77
2023-04-03T21:13:40.744Z,9.20
2023-04-03T21:16:09.045Z,6.20
2023-04-03T21:19:01.273Z,5.20
2023-04-03T21:21:29.844Z,6.20
2023-04-03T21:23:58.536Z,5.17
2023-04-03T21:26:28.693Z,5.17
2023-04-03T21:28:57.410Z,6.00
2023-04-03T21:31:26.469Z,5.50
2023-04-03T21:33:54.950Z,7.90
2023-04-03T21:36:24.963Z,6.83
2023-04-03T21:38:59.228Z,5.47
2023-04-03T21:41:27.771Z,5.67
2023-04-03T21:43:57.295Z,6.30
2023-04-03T21:46:26.126Z,6.13
2023-04-03T21:48:56.188Z,5.83
2023-04-03T21:51:28.024Z,6.60
2023-04-03T21:53:57.603Z,6.47
2023-04-03T21:56:26.630Z,5.07
2023-04-03T21:58:55.935Z,4.60
2023-04-03T22:01:24.483Z,5.33
2023-04-03T22:03:53.052Z,4.77
2023-04-03T22:06:21.519Z,7.17
2023-04-03T22:08:51.682Z,8.30
2023-04-03T22:11:23.237Z,7.60
2023-04-03T22:13:54.273Z,12.60
2023-04-03T22:16:24.221Z,13.27
2023-04-03T22:18:53.252Z,18.40
2023-04-03T22:21:22.516Z,21.47
2023-04-03T22:23:52.837Z,18.93
2023-04-03T22:26:22.087Z,29.47
2023-04-03T22:28:50.641Z,54.83
2023-04-03T22:31:20.952Z,39.23
2023-04-03T22:33:49.531Z,26.20
2023-04-03T22:36:18.207Z,15.10
2023-04-03T22:38:47.578Z,14.10
2023-04-03T22:41:17.659Z,11.33
2023-04-03T22:43:46.469Z,13.07
2023-04-03T22:46:14.950Z,11.87
2023-04-03T22:48:45.419Z,14.10
2023-04-03T22:51:14.256Z,10.93
2023-04-03T22:53:43.149Z,14.27
2023-04-03T22:56:12.876Z,17.87
2023-04-03T22:58:43.502Z,21.17
2023-04-03T23:01:13.267Z,18.10
2023-04-03T23:03:46.182Z,23.27
2023-04-03T23:06:15.997Z,25.33
2023-04-03T23:08:45.045Z,27.03
2023-04-03T23:11:13.460Z,22.50
2023-04-03T23:13:44.040Z,19.97
2023-04-03T23:16:12.938Z,17.27
2023-04-03T23:18:43.893Z,22.53
2023-04-03T23:21:13.448Z,19.33
2023-04-03T23:23:43.398Z,22.93
2023-04-03T23:26:12.661Z,14.93
2023-04-03T23:28:43.605Z,15.00
2023-04-03T23:31:13.630Z,13.20
2023-04-03T23:33:44.162Z,14.23
2023-04-03T23:36:16.280Z,13.07
2023-04-03T23:38:49.120Z,14.87
2023-04-03T23:41:17.775Z,12.20
2023-04-03T23:43:47.729Z,11.47
2023-04-03T23:46:16.276Z,12.50
2023-04-03T23:48:44.756Z,9.20
2023-04-03T23:51:13.360Z,13.10
2023-04-03T23:53:42.248Z,11.53
2023-04-03T23:56:13.498Z,22.73
2023-04-03T23:58:41.980Z,15.93
